createdAt,value
2022-12-09T00:01:16.697Z,98285.61
2022-12-09T00:03:44.878Z,98284.40
2022-12-09T00:06:16.455Z,98287.85
2022-12-09T00:08:44.989Z,98288.04
2022-12-09T00:11:13.103Z,98285.98
2022-12-09T00:13:41.656Z,98291.99
2022-12-09T00:16:12.170Z,98289.66
2022-12-09T00:18:44.316Z,98290.75
2022-12-09T00:21:19.853Z,98291.05
2022-12-09T00:23:48.186Z,98290.75
2022-12-09T00:26:16.721Z,98286.70
2022-12-09T00:28:45.014Z,98293.12
2022-12-09T00:31:18.051Z,98293.09
2022-12-09T00:33:46.450Z,98300.77
2022-12-09T00:36:16.607Z,98300.61
2022-12-09T00:38:44.252Z,98306.85
2022-12-09T00:41:13.191Z,98306.35
2022-12-09T00:43:41.761Z,98307.22
2022-12-09T00:46:10.827Z,98307.89
2022-12-09T00:48:38.856Z,98306.59
2022-12-09T00:51:08.277Z,98310.48
2022-12-09T00:53:35.965Z,98311.46
2022-12-09T00:56:04.377Z,98309.55
2022-12-09T00:58:32.112Z,98308.66
2022-12-09T01:01:00.277Z,98304.85
2022-12-09T01:03:29.881Z,98307.56
2022-12-09T01:05:58.000Z,98307.27
2022-12-09T01:08:25.954Z,98308.09
2022-12-09T01:10:53.793Z,98307.67
2022-12-09T01:13:21.649Z,98307.52
2022-12-09T01:15:49.534Z,98306.85
2022-12-09T01:18:17.402Z,98304.96
2022-12-09T01:20:45.081Z,98303.04
2022-12-09T01:23:13.176Z,98300.86
2022-12-09T01:25:41.153Z,98301.64
2022-12-09T01:28:09.046Z,98297.84
2022-12-09T01:30:37.091Z,98293.05
2022-12-09T01:33:06.465Z,98298.81
2022-12-09T01:35:34.349Z,98293.63
2022-12-09T01:38:02.106Z,98295.56
2022-12-09T01:40:29.902Z,98292.25
2022-12-09T01:42:57.624Z,98291.42
2022-12-09T01:45:32.827Z,98290.34
2022-12-09T01:48:11.140Z,98285.77
2022-12-09T01:50:55.709Z,98285.42
2022-12-09T01:53:26.643Z,98285.52
2022-12-09T01:55:55.755Z,98288.45
2022-12-09T01:58:24.098Z,98292.27
2022-12-09T02:00:52.727Z,98295.10
2022-12-09T02:03:21.585Z,98295.73
2022-12-09T02:05:49.860Z,98300.64
2022-12-09T02:08:19.693Z,98295.26
2022-12-09T02:11:08.502Z,98289.62
2022-12-09T02:13:47.823Z,98290.71
2022-12-09T02:16:20.149Z,98289.35
2022-12-09T02:19:17.055Z,98287.27
2022-12-09T02:21:53.860Z,98287.16
2022-12-09T02:24:41.454Z,98285.25
2022-12-09T02:27:25.198Z,98290.31
2022-12-09T02:30:09.172Z,98288.88
2022-12-09T02:33:06.442Z,98288.35
2022-12-09T02:35:48.106Z,98286.38
2022-12-09T02:38:30.841Z,98273.68
2022-12-09T02:41:10.455Z,98286.83
2022-12-09T02:43:49.688Z,98287.71
2022-12-09T02:46:21.085Z,98282.74
2022-12-09T02:48:53.579Z,98287.52
2022-12-09T02:51:22.826Z,98285.18
2022-12-09T02:53:55.534Z,98287.84
2022-12-09T02:56:24.308Z,98290.55
2022-12-09T02:58:52.331Z,98288.93
2022-12-09T03:01:35.681Z,98283.87
2022-12-09T03:04:03.997Z,98282.55
2022-12-09T03:06:37.835Z,98281.56
2022-12-09T03:09:35.545Z,98274.05
2022-12-09T03:12:10.076Z,98275.04
2022-12-09T03:14:47.392Z,98276.16
2022-12-09T03:17:25.837Z,98273.17
2022-12-09T03:19:57.809Z,98269.47
2022-12-09T03:22:29.264Z,98269.28
2022-12-09T03:25:05.061Z,98263.94
2022-12-09T03:27:35.967Z,98268.15
2022-12-09T03:30:07.588Z,98265.85
2022-12-09T03:32:37.738Z,98261.94
2022-12-09T03:35:10.976Z,98257.85
2022-12-09T03:37:40.155Z,98258.38
2022-12-09T03:40:14.359Z,98253.89
2022-12-09T03:43:05.984Z,98251.19
2022-12-09T03:45:33.958Z,98250.50
2022-12-09T03:48:02.366Z,98251.50
2022-12-09T03:50:36.398Z,98247.25
2022-12-09T03:53:13.757Z,98251.84
2022-12-09T03:55:46.910Z,98254.35
2022-12-09T03:58:15.153Z,98255.33
2022-12-09T04:00:43.815Z,98252.95
2022-12-09T04:03:13.836Z,98248.99
2022-12-09T04:05:43.253Z,98248.55
2022-12-09T04:08:11.433Z,98251.80
2022-12-09T04:10:40.428Z,98253.19
2022-12-09T04:13:08.553Z,98254.54
2022-12-09T04:15:36.200Z,98256.58
2022-12-09T04:18:04.208Z,98251.08
2022-12-09T04:20:32.084Z,98254.52
2022-12-09T04:23:00.258Z,98253.25
2022-12-09T04:25:28.078Z,98250.09
2022-12-09T04:30:32.094Z,98247.16
2022-12-09T04:33:00.862Z,98246.73
2022-12-09T04:35:28.826Z,98244.72
2022-12-09T04:37:56.627Z,98244.95
2022-12-09T04:40:24.992Z,98244.67
2022-12-09T04:42:52.888Z,98250.55
2022-12-09T04:45:20.880Z,98251.45
2022-12-09T04:47:48.598Z,98253.97
2022-12-09T04:50:17.284Z,98252.30
2022-12-09T04:52:45.534Z,98251.73
2022-12-09T04:55:14.331Z,98256.05
2022-12-09T04:57:43.032Z,98255.73
2022-12-09T05:00:13.956Z,98248.11
2022-12-09T05:02:42.221Z,98255.63
2022-12-09T05:05:10.464Z,98256.48
2022-12-09T05:07:38.914Z,98259.95
2022-12-09T05:10:08.144Z,98264.75
2022-12-09T05:12:36.106Z,98269.63
2022-12-09T05:15:04.537Z,98271.98
2022-12-09T05:17:32.512Z,98272.55
2022-12-09T05:20:00.417Z,98273.44
2022-12-09T05:22:28.270Z,98274.84
2022-12-09T05:24:56.111Z,98273.57
2022-12-09T05:27:24.497Z,98275.88
2022-12-09T05:29:52.548Z,98274.94
2022-12-09T05:32:21.563Z,98279.90
2022-12-09T05:34:49.656Z,98278.59
2022-12-09T05:37:17.726Z,98282.44
2022-12-09T05:39:45.908Z,98281.58
2022-12-09T05:42:13.849Z,98280.86
2022-12-09T05:44:41.703Z,98281.20
2022-12-09T05:47:09.930Z,98278.48
2022-12-09T05:49:39.075Z,98279.90
2022-12-09T05:52:06.949Z,98276.22
2022-12-09T05:54:34.669Z,98277.03
2022-12-09T05:57:04.435Z,98275.50
2022-12-09T05:59:32.783Z,98278.58
2022-12-09T06:02:04.969Z,98276.27
2022-12-09T06:04:36.761Z,98281.84
2022-12-09T06:07:04.720Z,98279.98
2022-12-09T06:09:33.901Z,98281.87
2022-12-09T06:12:03.607Z,98283.38
2022-12-09T06:14:31.465Z,98284.19
2022-12-09T06:16:59.514Z,98286.25
2022-12-09T06:19:27.643Z,98288.59
2022-12-09T06:21:55.530Z,98287.58
2022-12-09T06:24:23.459Z,98288.39
2022-12-09T06:26:55.137Z,98291.31
2022-12-09T06:29:22.970Z,98287.04
2022-12-09T06:31:51.460Z,98290.39
2022-12-09T06:34:20.294Z,98288.19
2022-12-09T06:36:48.755Z,98286.67
2022-12-09T06:39:17.184Z,98287.33
2022-12-09T06:41:45.638Z,98286.46
2022-12-09T06:44:19.983Z,98291.74
2022-12-09T06:46:49.714Z,98291.36
2022-12-09T06:49:18.243Z,98293.77
2022-12-09T06:51:46.280Z,98291.86
2022-12-09T06:54:14.243Z,98290.91
2022-12-09T06:56:42.076Z,98288.98
2022-12-09T06:59:10.805Z,98290.84
2022-12-09T07:01:40.913Z,98293.96
2022-12-09T07:04:10.778Z,98294.87
2022-12-09T07:06:43.724Z,98290.50
2022-12-09T07:09:17.875Z,98291.39
2022-12-09T07:11:47.162Z,98292.52
2022-12-09T07:14:16.771Z,98290.13
2022-12-09T07:16:45.334Z,98295.77
2022-12-09T07:19:21.526Z,98292.27
2022-12-09T07:21:50.901Z,98292.30
2022-12-09T07:24:20.189Z,98289.50
2022-12-09T07:26:48.666Z,98296.34
2022-12-09T07:29:17.153Z,98299.84
2022-12-09T07:31:45.284Z,98301.19
2022-12-09T07:34:13.627Z,98300.71
2022-12-09T07:36:41.991Z,98304.89
2022-12-09T07:39:16.367Z,98304.98
2022-12-09T07:41:44.673Z,98307.61
2022-12-09T07:44:12.786Z,98302.27
2022-12-09T07:46:41.123Z,98298.11
2022-12-09T07:49:11.271Z,98297.96
2022-12-09T07:51:40.152Z,98299.00
2022-12-09T07:54:12.360Z,98300.92
2022-12-09T07:56:40.806Z,98293.80
2022-12-09T07:59:09.817Z,98294.26
2022-12-09T08:01:38.587Z,98295.77
2022-12-09T08:04:07.611Z,98292.84
2022-12-09T08:06:38.051Z,98294.23
2022-12-09T08:09:09.159Z,98295.73
2022-12-09T08:11:37.606Z,98296.02
2022-12-09T08:14:12.167Z,98290.86
2022-12-09T08:16:42.015Z,98293.47
2022-12-09T08:19:10.609Z,98289.64
2022-12-09T08:21:39.181Z,98289.39
2022-12-09T08:24:08.156Z,98290.57
2022-12-09T08:26:40.272Z,98292.19
2022-12-09T08:29:10.956Z,98293.36
2022-12-09T08:31:42.406Z,98294.54
2022-12-09T08:34:11.150Z,98296.39
2022-12-09T08:36:39.368Z,98299.04
2022-12-09T08:39:07.856Z,98298.77
2022-12-09T08:41:38.678Z,98297.02
2022-12-09T08:44:13.763Z,98299.60
2022-12-09T08:46:44.397Z,98303.33
2022-12-09T08:49:13.586Z,98304.14
2022-12-09T08:51:41.952Z,98304.70
2022-12-09T08:54:09.924Z,98306.60
2022-12-09T08:56:38.020Z,98306.66
2022-12-09T08:59:06.081Z,98304.58
2022-12-09T09:01:35.841Z,98297.13
2022-12-09T09:04:08.721Z,98297.90
2022-12-09T09:06:38.612Z,98302.34
2022-12-09T09:09:09.002Z,98300.13
2022-12-09T09:11:37.498Z,98304.14
2022-12-09T09:14:06.814Z,98306.20
2022-12-09T09:16:35.783Z,98302.58
2022-12-09T09:19:06.702Z,98303.97
2022-12-09T09:21:35.880Z,98302.08
2022-12-09T09:24:12.107Z,98305.17
2022-12-09T09:26:41.789Z,98304.48
2022-12-09T09:29:15.110Z,98302.11
2022-12-09T09:31:43.126Z,98302.40
2022-12-09T09:34:11.462Z,98304.05
2022-12-09T09:36:40.406Z,98302.54
2022-12-09T09:39:08.605Z,98304.02
2022-12-09T09:41:45.496Z,98303.20
2022-12-09T09:44:33.078Z,98301.93
2022-12-09T09:47:05.434Z,98303.33
2022-12-09T09:49:55.589Z,98303.56
2022-12-09T09:52:26.787Z,98300.77
2022-12-09T09:54:57.119Z,98304.20
2022-12-09T09:57:31.351Z,98300.89
2022-12-09T10:00:22.848Z,98301.30
2022-12-09T10:02:59.723Z,98296.98
2022-12-09T10:05:33.612Z,98298.53
2022-12-09T10:08:32.168Z,98292.57
2022-12-09T10:11:10.996Z,98295.07
2022-12-09T10:14:17.346Z,98298.66
2022-12-09T10:16:57.456Z,98294.46
2022-12-09T10:19:51.844Z,98293.73
2022-12-09T10:22:25.713Z,98299.42
2022-12-09T10:24:57.182Z,98293.44
2022-12-09T10:27:29.851Z,98297.66
2022-12-09T10:30:00.038Z,98299.94
2022-12-09T10:32:34.537Z,98290.85
2022-12-09T10:35:14.183Z,98289.03
2022-12-09T10:37:42.449Z,98287.73
2022-12-09T10:40:11.127Z,98280.19
2022-12-09T10:43:07.272Z,98282.76
2022-12-09T10:46:15.214Z,98281.60
2022-12-09T10:48:33.089Z,98276.00
2022-12-09T10:51:05.273Z,98273.50
2022-12-09T10:53:34.659Z,98276.29
2022-12-09T10:56:03.538Z,98274.95
2022-12-09T10:58:32.512Z,98272.52
2022-12-09T11:01:10.327Z,98271.95
2022-12-09T11:03:56.101Z,98276.33
2022-12-09T11:06:29.848Z,98277.57
2022-12-09T11:09:01.141Z,98281.22
2022-12-09T11:11:58.634Z,98280.02
2022-12-09T11:14:56.968Z,98277.02
2022-12-09T11:17:28.450Z,98275.85
2022-12-09T11:20:22.648Z,98269.73
2022-12-09T11:23:03.562Z,98269.03
2022-12-09T11:25:34.670Z,98271.70
2022-12-09T11:28:13.775Z,98273.73
2022-12-09T11:33:58.114Z,98270.91
2022-12-09T11:36:33.444Z,98278.59
2022-12-09T11:39:28.869Z,98283.09
2022-12-09T11:42:17.455Z,98281.34
2022-12-09T11:44:48.490Z,98281.03
2022-12-09T11:47:50.480Z,98281.98
2022-12-09T11:50:31.480Z,98277.09
2022-12-09T11:53:17.984Z,98279.27
2022-12-09T11:55:52.646Z,98283.74
2022-12-09T11:58:25.662Z,98283.44
2022-12-09T12:00:59.910Z,98283.39
2022-12-09T12:03:38.191Z,98283.19
2022-12-09T12:06:12.209Z,98282.15
2022-12-09T12:08:46.978Z,98277.90
2022-12-09T12:11:28.935Z,98277.42
2022-12-09T12:14:04.578Z,98275.48
2022-12-09T12:16:52.569Z,98270.13
2022-12-09T12:19:38.050Z,98270.05
2022-12-09T12:22:24.649Z,98267.23
2022-12-09T12:25:17.201Z,98269.73
2022-12-09T12:28:01.220Z,98270.65
2022-12-09T12:30:46.212Z,98263.88
2022-12-09T12:36:45.254Z,98262.92
2022-12-09T12:39:40.444Z,98259.66
2022-12-09T12:42:26.676Z,98260.88
2022-12-09T12:45:32.875Z,98260.86
2022-12-09T12:48:24.543Z,98256.89
2022-12-09T12:51:03.112Z,98261.45
2022-12-09T12:54:09.238Z,98264.98
2022-12-09T12:57:09.943Z,98262.30
2022-12-09T12:59:54.329Z,98267.84
2022-12-09T13:02:31.169Z,98267.17
2022-12-09T13:05:03.704Z,98263.45
2022-12-09T13:07:41.669Z,98259.99
2022-12-09T13:10:35.268Z,98256.90
2022-12-09T13:13:04.940Z,98251.98
2022-12-09T13:15:39.259Z,98246.29
2022-12-09T13:18:14.475Z,98250.54
2022-12-09T13:20:46.695Z,98251.52
2022-12-09T13:23:23.447Z,98249.95
2022-12-09T13:25:57.395Z,98248.60
2022-12-09T13:28:34.053Z,98251.39
2022-12-09T13:31:03.357Z,98259.11
2022-12-09T13:33:38.923Z,98258.02
2022-12-09T13:36:36.958Z,98257.26
2022-12-09T13:39:05.229Z,98253.71
2022-12-09T13:41:55.830Z,98248.45
2022-12-09T13:44:28.914Z,98253.48
2022-12-09T13:47:13.892Z,98254.56
2022-12-09T13:49:41.794Z,98258.48
2022-12-09T13:52:09.524Z,98261.08
2022-12-09T13:54:47.223Z,98263.91
2022-12-09T13:57:23.951Z,98265.95
2022-12-09T13:59:59.299Z,98261.17
2022-12-09T14:02:41.021Z,98252.39
2022-12-09T14:05:15.199Z,98251.17
2022-12-09T14:07:48.769Z,98250.64
2022-12-09T14:10:40.655Z,98249.29
2022-12-09T14:13:38.053Z,98241.69
2022-12-09T14:16:27.813Z,98242.38
2022-12-09T14:18:58.751Z,98249.54
2022-12-09T14:21:35.422Z,98249.68
2022-12-09T14:24:09.549Z,98245.30
2022-12-09T14:26:52.674Z,98243.66
2022-12-09T14:29:42.285Z,98237.64
2022-12-09T14:32:48.313Z,98237.67
2022-12-09T14:35:15.953Z,98244.40
2022-12-09T14:38:02.376Z,98240.32
2022-12-09T14:40:52.046Z,98241.27
2022-12-09T14:43:49.968Z,98246.48
2022-12-09T14:46:25.727Z,98250.48
2022-12-09T14:49:00.557Z,98246.52
2022-12-09T14:51:34.794Z,98243.49
2022-12-09T14:54:26.801Z,98245.10
2022-12-09T14:56:59.266Z,98238.67
2022-12-09T14:59:29.509Z,98242.59
2022-12-09T15:02:04.242Z,98246.68
2022-12-09T15:04:34.770Z,98240.91
2022-12-09T15:07:16.061Z,98238.02
2022-12-09T15:09:48.240Z,98237.57
2022-12-09T15:12:16.059Z,98225.80
2022-12-09T15:14:47.075Z,98224.27
2022-12-09T15:17:32.360Z,98211.14
2022-12-09T15:20:12.126Z,98209.68
2022-12-09T15:22:40.321Z,98209.20
2022-12-09T15:25:17.157Z,98202.34
2022-12-09T15:27:59.658Z,98196.77
2022-12-09T15:30:30.633Z,98200.55
2022-12-09T15:32:58.796Z,98200.31
2022-12-09T15:35:29.715Z,98193.23
2022-12-09T15:38:00.266Z,98196.31
2022-12-09T15:40:30.212Z,98194.14
2022-12-09T15:43:01.781Z,98192.88
2022-12-09T15:45:32.482Z,98195.37
2022-12-09T15:48:09.412Z,98199.91
2022-12-09T15:50:51.753Z,98203.16
2022-12-09T15:53:23.240Z,98201.27
2022-12-09T15:55:54.036Z,98206.67
2022-12-09T15:58:25.903Z,98209.99
2022-12-09T16:00:53.936Z,98212.65
2022-12-09T16:03:25.246Z,98213.11
2022-12-09T16:05:55.352Z,98207.21
2022-12-09T16:08:23.504Z,98201.69
2022-12-09T16:10:51.981Z,98196.79
2022-12-09T16:13:21.345Z,98190.09
2022-12-09T16:15:54.704Z,98191.55
2022-12-09T16:18:46.944Z,98190.09
2022-12-09T16:21:14.784Z,98188.56
2022-12-09T16:23:45.017Z,98181.17
2022-12-09T16:26:30.457Z,98172.30
2022-12-09T16:29:01.128Z,98177.86
2022-12-09T16:31:29.382Z,98178.48
2022-12-09T16:33:57.690Z,98185.13
2022-12-09T16:36:30.967Z,98188.79
2022-12-09T16:39:07.912Z,98187.88
2022-12-09T16:41:51.145Z,98191.55
2022-12-09T16:44:21.217Z,98190.41
2022-12-09T16:46:48.967Z,98187.51
2022-12-09T16:49:16.653Z,98186.68
2022-12-09T16:51:44.545Z,98185.45
2022-12-09T16:54:20.056Z,98182.20
2022-12-09T16:56:48.535Z,98181.65
2022-12-09T16:59:16.167Z,98178.13
2022-12-09T17:01:44.006Z,98179.62
2022-12-09T17:04:30.213Z,98177.38
2022-12-09T17:06:57.898Z,98168.40
2022-12-09T17:09:25.548Z,98170.50
2022-12-09T17:11:53.351Z,98172.23
2022-12-09T17:14:21.229Z,98171.06
2022-12-09T17:16:49.324Z,98168.19
2022-12-09T17:19:20.444Z,98162.31
2022-12-09T17:21:48.124Z,98160.58
2022-12-09T17:24:15.985Z,98161.98
2022-12-09T17:26:43.696Z,98162.98
2022-12-09T17:29:11.523Z,98162.80
2022-12-09T17:31:39.197Z,98161.52
2022-12-09T17:34:07.311Z,98165.52
2022-12-09T17:36:34.960Z,98169.39
2022-12-09T17:39:03.594Z,98171.55
2022-12-09T17:41:31.260Z,98166.88
2022-12-09T17:44:02.128Z,98167.29
2022-12-09T17:46:29.948Z,98160.73
2022-12-09T17:49:00.276Z,98164.15
2022-12-09T17:51:33.923Z,98161.18
2022-12-09T17:54:04.876Z,98162.98
2022-12-09T17:56:33.314Z,98161.45
2022-12-09T17:59:04.199Z,98160.30
2022-12-09T18:01:34.045Z,98160.36
2022-12-09T18:04:08.245Z,98158.72
2022-12-09T18:06:38.566Z,98152.15
2022-12-09T18:09:08.568Z,98147.83
2022-12-09T18:11:36.639Z,98141.62
2022-12-09T18:14:05.533Z,98144.63
2022-12-09T18:16:34.573Z,98141.46
2022-12-09T18:19:05.145Z,98137.80
2022-12-09T18:21:34.013Z,98133.05
2022-12-09T18:24:01.971Z,98133.73
2022-12-09T18:26:32.917Z,98140.33
2022-12-09T18:29:03.701Z,98143.58
2022-12-09T18:31:31.678Z,98146.19
2022-12-09T18:33:59.374Z,98149.04
2022-12-09T18:36:28.604Z,98152.66
2022-12-09T18:38:58.305Z,98152.17
2022-12-09T18:41:29.484Z,98152.29
2022-12-09T18:43:59.347Z,98149.67
2022-12-09T18:46:36.523Z,98145.73
2022-12-09T18:49:10.731Z,98141.91
2022-12-09T18:51:39.779Z,98142.65
2022-12-09T18:54:08.368Z,98141.98
2022-12-09T18:56:37.044Z,98144.65
2022-12-09T18:59:07.542Z,98147.02
2022-12-09T19:01:39.703Z,98149.00
2022-12-09T19:04:16.412Z,98148.27
2022-12-09T19:06:46.341Z,98151.75
2022-12-09T19:09:18.236Z,98152.92
2022-12-09T19:11:46.983Z,98146.23
2022-12-09T19:14:16.034Z,98148.02
2022-12-09T19:16:44.266Z,98148.25
2022-12-09T19:19:14.216Z,98148.17
2022-12-09T19:21:42.722Z,98152.34
2022-12-09T19:24:15.051Z,98147.80
2022-12-09T19:26:42.968Z,98146.66
2022-12-09T19:29:12.115Z,98143.50
2022-12-09T19:31:44.855Z,98143.12
2022-12-09T19:34:15.863Z,98138.81
2022-12-09T19:36:44.390Z,98139.98
2022-12-09T19:39:13.739Z,98138.46
2022-12-09T19:41:43.219Z,98136.84
2022-12-09T19:44:31.139Z,98144.86
2022-12-09T19:47:04.185Z,98145.45
2022-12-09T19:49:32.234Z,98141.09
2022-12-09T19:52:00.223Z,98139.36
2022-12-09T19:54:29.571Z,98138.69
2022-12-09T19:56:57.242Z,98147.19
2022-12-09T19:59:26.505Z,98146.45
2022-12-09T20:01:54.409Z,98143.45
2022-12-09T20:07:12.190Z,98142.33
2022-12-09T20:09:39.886Z,98149.11
2022-12-09T20:12:07.530Z,98144.60
2022-12-09T20:14:35.307Z,98144.92
2022-12-09T20:17:02.920Z,98137.13
2022-12-09T20:19:31.434Z,98134.95
2022-12-09T20:21:59.203Z,98132.98
2022-12-09T20:24:27.587Z,98125.98
2022-12-09T20:26:55.987Z,98123.64
2022-12-09T20:29:23.621Z,98116.20
2022-12-09T20:31:52.670Z,98118.70
2022-12-09T20:34:20.329Z,98118.13
2022-12-09T20:36:48.594Z,98113.02
2022-12-09T20:39:18.721Z,98115.36
2022-12-09T20:41:47.352Z,98109.88
2022-12-09T20:44:16.705Z,98112.08
2022-12-09T20:46:47.295Z,98109.48
2022-12-09T20:49:15.183Z,98112.50
2022-12-09T20:51:47.024Z,98113.21
2022-12-09T20:54:14.817Z,98105.75
2022-12-09T20:56:42.532Z,98099.14
2022-12-09T20:59:12.064Z,98092.41
2022-12-09T21:01:40.284Z,98093.09
2022-12-09T21:04:08.585Z,98098.84
2022-12-09T21:06:38.897Z,98097.72
2022-12-09T21:09:14.755Z,98092.28
2022-12-09T21:11:42.816Z,98093.27
2022-12-09T21:14:11.496Z,98083.80
2022-12-09T21:16:41.564Z,98080.67
2022-12-09T21:19:13.405Z,98085.33
2022-12-09T21:21:42.950Z,98086.70
2022-12-09T21:24:12.061Z,98094.55
2022-12-09T21:26:40.811Z,98095.13
2022-12-09T21:29:10.662Z,98097.27
2022-12-09T21:31:40.846Z,98095.66
2022-12-09T21:34:09.719Z,98090.80
2022-12-09T21:36:39.797Z,98093.33
2022-12-09T21:39:07.495Z,98090.17
2022-12-09T21:41:36.539Z,98089.45
2022-12-09T21:44:05.163Z,98087.83
2022-12-09T21:46:37.373Z,98088.11
2022-12-09T21:49:06.689Z,98085.86
2022-12-09T21:51:35.060Z,98082.07
2022-12-09T21:54:03.600Z,98079.08
2022-12-09T21:56:33.547Z,98083.61
2022-12-09T21:59:02.434Z,98086.33
2022-12-09T22:01:33.340Z,98087.04
2022-12-09T22:04:03.947Z,98084.06
2022-12-09T22:06:31.758Z,98085.38
2022-12-09T22:09:00.983Z,98085.23
2022-12-09T22:11:31.681Z,98088.48
2022-12-09T22:14:01.106Z,98088.55
2022-12-09T22:16:31.926Z,98089.55
2022-12-09T22:19:00.942Z,98084.61
2022-12-09T22:21:30.735Z,98087.04
2022-12-09T22:24:03.235Z,98081.36
2022-12-09T22:26:31.599Z,98080.52
2022-12-09T22:29:00.819Z,98074.48
2022-12-09T22:31:31.690Z,98075.70
2022-12-09T22:34:05.239Z,98078.45
2022-12-09T22:36:34.724Z,98078.38
2022-12-09T22:39:04.174Z,98084.43
2022-12-09T22:41:34.237Z,98075.09
2022-12-09T22:44:02.451Z,98071.05
2022-12-09T22:46:33.880Z,98069.33
2022-12-09T22:49:04.721Z,98070.58
2022-12-09T22:51:34.860Z,98068.11
2022-12-09T22:54:06.237Z,98067.42
2022-12-09T22:56:35.737Z,98064.40
2022-12-09T22:59:03.811Z,98064.52
2022-12-09T23:01:33.524Z,98065.23
2022-12-09T23:04:01.689Z,98062.14
2022-12-09T23:06:29.512Z,98058.18
2022-12-09T23:08:57.515Z,98059.72
2022-12-09T23:11:26.837Z,98063.12
2022-12-09T23:13:55.479Z,98061.48
2022-12-09T23:16:24.406Z,98059.64
2022-12-09T23:18:54.237Z,98056.17
2022-12-09T23:21:25.234Z,98058.68
2022-12-09T23:23:55.053Z,98059.23
2022-12-09T23:26:25.836Z,98060.41
2022-12-09T23:28:56.101Z,98059.05
2022-12-09T23:31:28.159Z,98060.24
2022-12-09T23:33:56.299Z,98057.96
2022-12-09T23:36:27.400Z,98064.66
2022-12-09T23:38:55.076Z,98059.95
2022-12-09T23:41:23.878Z,98044.11
2022-12-09T23:43:52.505Z,98062.81
2022-12-09T23:46:24.129Z,98064.45
2022-12-09T23:48:52.745Z,98059.19
2022-12-09T23:51:30.051Z,98061.13
2022-12-09T23:54:00.521Z,98055.57
2022-12-09T23:56:30.719Z,98051.02
2022-12-09T23:59:01.219Z,98045.27
